createdAt,value
2019-05-19T00:01:37.212Z,92.00
2019-05-19T00:04:07.126Z,87.63
2019-05-19T00:06:37.358Z,102.37
2019-05-19T00:09:06.308Z,93.47
2019-05-19T00:11:36.410Z,93.20
2019-05-19T00:14:06.106Z,90.03
2019-05-19T00:16:35.539Z,96.40
2019-05-19T00:19:04.370Z,98.83
2019-05-19T00:21:33.298Z,102.57
2019-05-19T00:24:02.141Z,101.30
2019-05-19T00:26:32.172Z,102.83
2019-05-19T00:29:01.062Z,100.53
2019-05-19T00:31:31.360Z,96.10
2019-05-19T00:34:00.266Z,92.07
2019-05-19T00:36:29.095Z,91.07
2019-05-19T00:38:57.957Z,91.10
2019-05-19T00:41:26.803Z,98.90
2019-05-19T00:43:55.617Z,100.33
2019-05-19T00:46:25.879Z,87.77
2019-05-19T00:48:54.732Z,100.90
2019-05-19T00:51:23.636Z,89.83
2019-05-19T00:53:53.012Z,87.50
2019-05-19T00:56:21.828Z,97.27
2019-05-19T00:58:50.667Z,90.00
2019-05-19T01:01:19.509Z,94.50
2019-05-19T01:03:48.348Z,95.97
2019-05-19T01:06:17.215Z,90.83
2019-05-19T01:08:46.055Z,90.83
2019-05-19T01:11:14.882Z,88.50
2019-05-19T01:13:44.761Z,93.17
2019-05-19T01:16:13.609Z,93.57
2019-05-19T01:18:42.464Z,93.20
2019-05-19T01:21:11.309Z,94.43
2019-05-19T01:23:40.215Z,88.90
2019-05-19T01:26:10.160Z,86.00
2019-05-19T01:28:39.041Z,85.97
2019-05-19T01:31:09.004Z,98.30
2019-05-19T01:33:38.458Z,94.00
2019-05-19T01:36:07.563Z,96.60
2019-05-19T01:38:36.390Z,95.37
2019-05-19T01:41:05.213Z,100.13
2019-05-19T01:43:34.576Z,97.67
2019-05-19T01:46:03.430Z,108.30
2019-05-19T01:48:32.238Z,109.00
2019-05-19T01:51:01.800Z,96.97
2019-05-19T01:53:30.618Z,88.83
2019-05-19T01:55:59.424Z,96.70
2019-05-19T01:58:28.223Z,101.73
2019-05-19T02:00:57.790Z,108.17
2019-05-19T02:03:26.602Z,97.07
2019-05-19T02:05:56.392Z,100.87
2019-05-19T02:08:25.416Z,108.73
2019-05-19T02:10:54.198Z,94.87
2019-05-19T02:13:23.688Z,103.30
2019-05-19T02:15:52.536Z,101.90
2019-05-19T02:18:21.462Z,111.20
2019-05-19T02:20:50.545Z,95.93
2019-05-19T02:23:20.020Z,104.30
2019-05-19T02:25:49.052Z,117.37
2019-05-19T02:28:18.412Z,112.30
2019-05-19T02:30:48.864Z,102.57
2019-05-19T02:33:17.878Z,105.00
2019-05-19T02:35:46.699Z,105.73
2019-05-19T02:38:15.657Z,104.07
2019-05-19T02:40:47.177Z,99.93
2019-05-19T02:43:16.285Z,115.90
2019-05-19T02:45:45.173Z,106.90
2019-05-19T02:48:14.039Z,132.47
2019-05-19T02:50:52.034Z,120.20
2019-05-19T02:53:12.594Z,111.53
2019-05-19T02:55:41.507Z,121.47
2019-05-19T02:58:10.382Z,118.60
2019-05-19T03:00:39.982Z,107.20
2019-05-19T03:03:09.546Z,123.20
2019-05-19T03:05:39.339Z,133.17
2019-05-19T03:08:08.186Z,111.67
2019-05-19T03:10:37.540Z,124.43
2019-05-19T03:13:07.132Z,122.20
2019-05-19T03:15:36.748Z,115.30
2019-05-19T03:18:05.577Z,122.33
2019-05-19T03:20:34.428Z,116.80
2019-05-19T03:23:03.296Z,108.70
2019-05-19T03:25:32.276Z,115.33
2019-05-19T03:28:01.123Z,111.73
2019-05-19T03:31:34.953Z,107.90
2019-05-19T03:34:03.882Z,118.37
2019-05-19T03:36:32.750Z,130.67
2019-05-19T03:39:07.656Z,124.00
2019-05-19T03:41:36.481Z,129.20
2019-05-19T03:44:05.302Z,111.63
2019-05-19T03:46:34.115Z,112.57
2019-05-19T03:49:03.582Z,133.20
2019-05-19T03:51:33.363Z,116.00
2019-05-19T03:54:02.720Z,119.13
2019-05-19T03:56:31.544Z,122.27
2019-05-19T03:59:00.424Z,121.00
2019-05-19T04:01:29.350Z,140.73
2019-05-19T04:03:58.208Z,139.53
2019-05-19T04:06:27.623Z,116.27
2019-05-19T04:08:56.450Z,117.00
2019-05-19T04:11:25.323Z,117.83
2019-05-19T04:13:55.047Z,119.33
2019-05-19T04:16:24.884Z,123.00
2019-05-19T04:18:54.205Z,111.40
2019-05-19T04:21:25.306Z,116.60
2019-05-19T04:23:54.672Z,116.47
2019-05-19T04:26:23.533Z,113.60
2019-05-19T04:28:52.696Z,123.10
2019-05-19T04:31:21.639Z,124.70
2019-05-19T04:33:50.457Z,119.73
2019-05-19T04:36:19.419Z,113.70
2019-05-19T04:38:49.535Z,117.93
2019-05-19T04:41:18.559Z,108.17
2019-05-19T04:43:48.554Z,112.37
2019-05-19T04:46:17.371Z,109.93
2019-05-19T04:48:47.158Z,114.13
2019-05-19T04:51:16.049Z,105.70
2019-05-19T04:53:44.864Z,112.03
2019-05-19T04:56:13.702Z,99.77
2019-05-19T04:58:42.541Z,107.47
2019-05-19T05:01:12.011Z,104.47
2019-05-19T05:03:41.932Z,98.10
2019-05-19T05:06:10.796Z,100.73
2019-05-19T05:08:39.780Z,102.93
2019-05-19T05:11:08.935Z,93.33
2019-05-19T05:13:38.379Z,85.53
2019-05-19T05:16:07.218Z,87.00
2019-05-19T05:18:36.076Z,87.30
2019-05-19T05:21:05.789Z,86.67
2019-05-19T05:23:34.769Z,77.80
2019-05-19T05:26:04.019Z,81.93
2019-05-19T05:28:33.468Z,80.77
2019-05-19T05:31:02.404Z,87.77
2019-05-19T05:33:31.228Z,72.83
2019-05-19T05:36:00.212Z,75.67
2019-05-19T05:38:29.950Z,72.63
2019-05-19T05:40:58.798Z,73.40
2019-05-19T05:43:27.694Z,75.83
2019-05-19T05:45:56.524Z,76.13
2019-05-19T05:48:25.353Z,77.13
2019-05-19T05:50:55.462Z,77.63
2019-05-19T05:53:24.544Z,75.90
2019-05-19T05:55:57.481Z,68.73
2019-05-19T05:58:27.307Z,65.47
2019-05-19T06:00:58.157Z,78.37
2019-05-19T06:03:28.280Z,65.50
2019-05-19T06:05:58.551Z,65.87
2019-05-19T06:08:27.487Z,64.37
2019-05-19T06:10:57.552Z,66.67
2019-05-19T06:13:27.103Z,64.00
2019-05-19T06:15:55.919Z,64.40
2019-05-19T06:18:24.744Z,71.83
2019-05-19T06:20:54.250Z,64.83
2019-05-19T06:23:23.480Z,64.20
2019-05-19T06:25:53.258Z,60.40
2019-05-19T06:28:22.689Z,62.57
2019-05-19T06:30:51.792Z,60.57
2019-05-19T06:33:20.623Z,57.33
2019-05-19T06:35:49.480Z,57.97
2019-05-19T06:38:19.581Z,57.90
2019-05-19T06:40:49.350Z,57.77
2019-05-19T06:43:18.291Z,60.17
2019-05-19T06:45:47.168Z,58.83
2019-05-19T06:48:16.044Z,55.00
2019-05-19T06:50:44.906Z,53.07
2019-05-19T06:53:14.716Z,49.37
2019-05-19T06:55:43.508Z,55.57
2019-05-19T07:19:54.988Z,45.40
2019-05-19T07:22:23.800Z,45.87
2019-05-19T07:24:52.731Z,46.17
2019-05-19T07:27:22.073Z,41.37
2019-05-19T07:29:51.645Z,41.83
2019-05-19T07:32:21.229Z,43.23
2019-05-19T07:34:50.026Z,39.60
2019-05-19T07:37:20.018Z,39.73
2019-05-19T07:39:50.107Z,43.50
2019-05-19T07:42:18.989Z,37.77
2019-05-19T07:44:48.822Z,41.60
2019-05-19T07:47:19.420Z,42.80
2019-05-19T07:49:48.357Z,37.13
2019-05-19T07:52:17.965Z,36.17
2019-05-19T07:54:47.572Z,37.43
2019-05-19T07:57:17.164Z,35.00
2019-05-19T07:59:45.977Z,34.60
2019-05-19T08:02:16.980Z,37.27
2019-05-19T08:04:46.853Z,38.37
2019-05-19T08:07:15.732Z,34.67
2019-05-19T08:09:47.279Z,36.63
2019-05-19T08:12:17.470Z,30.77
2019-05-19T08:14:46.377Z,31.87
2019-05-19T08:17:15.276Z,27.57
2019-05-19T08:19:44.128Z,37.83
2019-05-19T08:22:15.159Z,32.80
2019-05-19T08:24:44.250Z,30.40
2019-05-19T08:27:13.819Z,29.60
2019-05-19T08:29:42.692Z,26.50
2019-05-19T08:32:11.529Z,29.33
2019-05-19T08:34:40.367Z,26.80
2019-05-19T08:37:10.299Z,28.30
2019-05-19T08:39:39.801Z,26.13
2019-05-19T08:42:09.324Z,26.40
2019-05-19T08:44:39.456Z,24.07
2019-05-19T08:47:08.374Z,26.87
2019-05-19T08:49:37.326Z,25.40
2019-05-19T08:52:06.231Z,24.50
2019-05-19T08:54:35.088Z,27.03
2019-05-19T08:57:04.528Z,26.03
2019-05-19T08:59:33.483Z,22.57
2019-05-19T09:02:02.471Z,25.07
2019-05-19T09:04:31.379Z,20.90
2019-05-19T09:07:00.267Z,22.03
2019-05-19T09:09:29.153Z,21.43
2019-05-19T09:11:58.084Z,19.03
2019-05-19T09:14:27.818Z,19.93
2019-05-19T09:16:56.641Z,22.17
2019-05-19T09:19:25.531Z,19.57
2019-05-19T09:21:54.450Z,18.00
2019-05-19T09:24:30.611Z,21.47
2019-05-19T09:26:52.529Z,18.90
2019-05-19T09:29:21.693Z,15.60
2019-05-19T09:31:50.783Z,16.17
2019-05-19T09:34:20.300Z,22.47
2019-05-19T09:36:50.250Z,16.97
2019-05-19T09:39:19.044Z,20.90
2019-05-19T09:41:47.931Z,19.90
2019-05-19T09:44:16.752Z,20.10
2019-05-19T09:46:46.557Z,22.07
2019-05-19T09:49:24.139Z,17.57
2019-05-19T09:51:53.096Z,17.13
2019-05-19T09:54:21.913Z,17.40
2019-05-19T09:56:50.859Z,18.00
2019-05-19T09:59:20.144Z,18.53
2019-05-19T10:01:48.967Z,17.57
2019-05-19T10:04:18.062Z,17.83
2019-05-19T10:06:47.878Z,17.03
2019-05-19T10:09:56.688Z,17.67
2019-05-19T10:12:25.744Z,18.37
2019-05-19T10:14:54.589Z,14.20
2019-05-19T10:17:24.330Z,13.27
2019-05-19T10:19:53.798Z,13.33
2019-05-19T10:22:24.428Z,14.40
2019-05-19T10:25:10.075Z,12.53
2019-05-19T10:27:22.260Z,11.37
2019-05-19T10:29:51.115Z,10.50
2019-05-19T10:32:19.990Z,10.50
2019-05-19T10:34:49.511Z,10.93
2019-05-19T10:37:19.371Z,12.90
2019-05-19T10:39:48.606Z,13.87
2019-05-19T10:42:17.559Z,10.67
2019-05-19T10:44:47.413Z,9.90
2019-05-19T10:47:17.387Z,18.73
2019-05-19T10:49:46.256Z,15.17
2019-05-19T10:52:15.083Z,10.90
2019-05-19T10:54:45.608Z,10.63
2019-05-19T10:57:14.391Z,8.13
2019-05-19T10:59:43.216Z,8.03
2019-05-19T11:02:12.141Z,9.97
2019-05-19T11:04:41.107Z,7.77
2019-05-19T11:07:10.712Z,7.60
2019-05-19T11:09:40.228Z,9.17
2019-05-19T11:12:09.103Z,8.77
2019-05-19T11:14:37.921Z,5.47
2019-05-19T11:17:07.992Z,6.90
2019-05-19T11:19:36.903Z,7.80
2019-05-19T11:22:05.726Z,16.67
2019-05-19T11:24:34.576Z,15.23
2019-05-19T11:27:05.827Z,10.90
2019-05-19T11:29:34.696Z,11.97
2019-05-19T11:32:03.825Z,11.00
2019-05-19T11:34:32.726Z,11.87
2019-05-19T11:37:01.593Z,9.37
2019-05-19T11:39:31.335Z,8.93
2019-05-19T11:42:00.182Z,11.30
2019-05-19T11:44:29.807Z,10.67
2019-05-19T11:46:58.692Z,14.67
2019-05-19T11:49:28.813Z,8.30
2019-05-19T11:51:57.688Z,7.30
2019-05-19T11:54:27.009Z,8.60
2019-05-19T11:56:55.870Z,6.70
2019-05-19T11:59:25.030Z,5.60
2019-05-19T12:01:53.879Z,9.87
2019-05-19T12:04:22.688Z,6.13
2019-05-19T12:06:51.545Z,6.30
2019-05-19T12:09:21.078Z,6.70
2019-05-19T12:11:50.703Z,7.77
2019-05-19T12:14:20.263Z,8.03
2019-05-19T12:16:49.285Z,7.10
2019-05-19T12:19:18.092Z,10.97
2019-05-19T12:21:46.932Z,7.67
2019-05-19T12:24:15.766Z,7.70
2019-05-19T12:26:45.242Z,11.20
2019-05-19T12:29:14.148Z,7.03
2019-05-19T12:31:42.991Z,7.63
2019-05-19T12:34:11.896Z,9.13
2019-05-19T12:36:40.908Z,6.90
2019-05-19T12:39:09.715Z,6.67
2019-05-19T12:41:39.222Z,10.70
2019-05-19T12:44:08.269Z,9.50
2019-05-19T12:46:37.152Z,10.13
2019-05-19T12:49:05.987Z,8.40
2019-05-19T12:51:34.844Z,10.53
2019-05-19T12:54:06.640Z,10.20
2019-05-19T12:56:39.530Z,9.10
2019-05-19T12:59:04.566Z,11.63
2019-05-19T13:01:39.651Z,6.43
2019-05-19T13:04:09.156Z,14.00
2019-05-19T13:06:38.061Z,8.10
2019-05-19T13:09:06.948Z,7.17
2019-05-19T13:11:36.082Z,8.67
2019-05-19T13:14:05.209Z,8.03
2019-05-19T13:16:36.304Z,5.80
2019-05-19T13:19:05.309Z,6.67
2019-05-19T13:21:34.204Z,10.00
2019-05-19T13:24:04.490Z,7.87
2019-05-19T13:26:33.836Z,8.33
2019-05-19T13:29:02.743Z,9.03
2019-05-19T13:31:32.903Z,17.13
2019-05-19T13:34:02.328Z,11.00
2019-05-19T13:36:31.176Z,9.50
2019-05-19T13:39:00.103Z,9.80
2019-05-19T13:41:28.952Z,13.27
2019-05-19T13:43:59.670Z,11.77
2019-05-19T13:46:26.654Z,13.13
2019-05-19T13:48:55.484Z,12.20
2019-05-19T13:51:24.348Z,10.50
2019-05-19T13:53:53.180Z,11.97
2019-05-19T13:56:22.138Z,13.67
2019-05-19T13:58:53.796Z,13.37
2019-05-19T14:01:28.790Z,10.90
2019-05-19T14:03:52.262Z,8.67
2019-05-19T14:06:20.396Z,10.90
2019-05-19T14:08:49.228Z,8.47
2019-05-19T14:11:18.125Z,8.13
2019-05-19T14:13:47.939Z,7.33
2019-05-19T14:16:16.782Z,7.57
2019-05-19T14:18:45.697Z,6.93
2019-05-19T14:21:14.512Z,24.03
2019-05-19T14:23:43.384Z,24.80
2019-05-19T14:26:12.760Z,18.77
2019-05-19T14:28:42.215Z,16.43
2019-05-19T14:31:13.803Z,18.53
2019-05-19T14:33:43.683Z,21.03
2019-05-19T14:36:12.543Z,27.33
2019-05-19T14:38:45.557Z,23.03
2019-05-19T14:41:14.394Z,26.70
2019-05-19T14:43:43.240Z,25.90
2019-05-19T14:46:12.196Z,31.93
2019-05-19T14:48:41.131Z,25.90
2019-05-19T14:51:10.401Z,31.20
2019-05-19T14:53:39.399Z,26.90
2019-05-19T14:56:09.548Z,31.10
2019-05-19T14:58:38.432Z,31.70
2019-05-19T15:01:07.512Z,27.63
2019-05-19T15:03:37.318Z,26.30
2019-05-19T15:06:06.128Z,27.97
2019-05-19T15:08:34.969Z,24.83
2019-05-19T15:11:04.982Z,28.60
2019-05-19T15:13:34.754Z,23.70
2019-05-19T15:16:03.573Z,22.77
2019-05-19T15:18:32.511Z,26.47
2019-05-19T15:21:01.433Z,24.13
2019-05-19T15:23:30.241Z,27.30
2019-05-19T15:25:59.158Z,24.83
2019-05-19T15:28:28.029Z,24.57
2019-05-19T15:30:58.636Z,23.67
2019-05-19T15:33:27.724Z,23.30
2019-05-19T15:35:56.459Z,21.50
2019-05-19T15:38:25.378Z,23.07
2019-05-19T15:40:54.209Z,24.63
2019-05-19T15:43:23.084Z,26.57
2019-05-19T15:45:52.317Z,30.07
2019-05-19T15:48:21.156Z,34.40
2019-05-19T15:50:50.697Z,33.17
2019-05-19T15:53:19.567Z,30.53
2019-05-19T15:55:48.437Z,23.73
2019-05-19T15:58:17.402Z,34.07
2019-05-19T16:00:46.260Z,32.30
2019-05-19T16:03:15.178Z,40.90
2019-05-19T16:05:44.064Z,38.63
2019-05-19T16:08:12.971Z,44.23
2019-05-19T16:10:41.910Z,39.67
2019-05-19T16:13:11.641Z,43.80
2019-05-19T16:15:40.560Z,46.53
2019-05-19T16:18:11.457Z,39.60
2019-05-19T16:20:40.459Z,48.93
2019-05-19T16:23:09.662Z,45.60
2019-05-19T16:25:38.537Z,45.70
2019-05-19T16:28:07.438Z,46.27
2019-05-19T16:30:38.370Z,42.60
2019-05-19T16:33:08.357Z,40.73
2019-05-19T16:35:37.286Z,43.60
2019-05-19T16:38:06.159Z,46.40
2019-05-19T16:40:35.638Z,39.67
2019-05-19T16:43:04.589Z,43.70
2019-05-19T16:45:33.484Z,47.00
2019-05-19T16:48:02.405Z,45.53
2019-05-19T16:50:31.368Z,53.43
2019-05-19T16:53:00.231Z,52.00
2019-05-19T16:55:29.796Z,55.17
2019-05-19T16:57:58.670Z,51.83
2019-05-19T17:00:27.548Z,51.33
2019-05-19T17:02:56.963Z,47.40
2019-05-19T17:05:26.645Z,51.07
2019-05-19T17:07:55.459Z,52.60
2019-05-19T17:10:24.593Z,46.23
2019-05-19T17:12:53.429Z,52.47
2019-05-19T17:15:22.430Z,26.03
2019-05-19T17:17:52.133Z,13.40
2019-05-19T17:20:22.017Z,13.93
2019-05-19T17:22:50.841Z,7.17
2019-05-19T17:25:19.703Z,11.90
2019-05-19T17:27:50.913Z,9.67
2019-05-19T17:30:19.967Z,12.33
2019-05-19T17:32:50.040Z,8.47
2019-05-19T17:35:19.848Z,8.50
2019-05-19T17:37:50.355Z,7.47
2019-05-19T17:40:19.925Z,15.77
2019-05-19T17:42:49.079Z,14.73
2019-05-19T17:45:18.608Z,8.93
2019-05-19T17:47:47.811Z,9.63
2019-05-19T17:50:17.724Z,7.90
2019-05-19T17:52:47.001Z,12.80
2019-05-19T17:55:15.851Z,10.57
2019-05-19T17:57:44.989Z,12.67
2019-05-19T18:00:15.596Z,9.47
2019-05-19T18:02:44.367Z,7.33
2019-05-19T18:05:14.066Z,9.50
2019-05-19T18:07:43.479Z,8.37
2019-05-19T18:10:12.358Z,9.17
2019-05-19T18:12:42.122Z,9.40
2019-05-19T18:15:11.053Z,12.27
2019-05-19T18:17:40.287Z,13.30
2019-05-19T18:20:22.917Z,16.63
2019-05-19T18:22:39.166Z,12.50
2019-05-19T18:25:09.646Z,12.53
2019-05-19T18:27:38.684Z,13.67
2019-05-19T18:30:08.865Z,9.53
2019-05-19T18:32:37.915Z,13.73
2019-05-19T18:35:07.636Z,15.00
2019-05-19T18:37:37.620Z,13.23
2019-05-19T18:40:07.110Z,13.97
2019-05-19T18:42:38.398Z,17.43
2019-05-19T18:45:07.372Z,15.70
2019-05-19T18:47:36.175Z,16.40
2019-05-19T18:50:05.452Z,16.80
2019-05-19T18:52:34.279Z,15.10
2019-05-19T18:55:03.644Z,19.57
2019-05-19T18:57:32.473Z,13.33
2019-05-19T19:00:03.162Z,14.00
2019-05-19T19:02:32.299Z,16.17
2019-05-19T19:05:01.927Z,18.77
2019-05-19T19:07:36.135Z,11.97
2019-05-19T19:10:05.220Z,14.73
2019-05-19T19:12:34.108Z,12.53
2019-05-19T19:15:02.989Z,15.27
2019-05-19T19:17:32.105Z,14.30
2019-05-19T19:20:00.923Z,14.13
2019-05-19T19:22:30.538Z,9.50
2019-05-19T19:25:00.070Z,11.63
2019-05-19T19:27:30.503Z,16.20
2019-05-19T19:30:03.871Z,19.80
2019-05-19T19:32:29.535Z,16.40
2019-05-19T19:34:58.414Z,29.83
2019-05-19T19:37:29.226Z,33.23
2019-05-19T19:40:03.343Z,29.57
2019-05-19T19:42:32.176Z,37.83
2019-05-19T19:45:02.463Z,44.67
2019-05-19T19:47:31.231Z,43.97
2019-05-19T19:50:00.067Z,34.83
2019-05-19T19:52:30.105Z,44.03
2019-05-19T19:54:59.170Z,40.37
2019-05-19T19:57:28.935Z,44.20
2019-05-19T19:59:59.843Z,49.00
2019-05-19T20:02:30.007Z,32.17
2019-05-19T20:04:59.619Z,27.13
2019-05-19T20:07:29.418Z,12.70
2019-05-19T20:09:58.938Z,16.07
2019-05-19T20:12:27.803Z,10.40
2019-05-19T20:14:56.645Z,14.37
2019-05-19T20:17:25.535Z,13.33
2019-05-19T20:19:54.452Z,10.83
2019-05-19T20:22:23.283Z,14.50
2019-05-19T20:24:52.783Z,14.33
2019-05-19T20:27:21.642Z,11.63
2019-05-19T20:29:51.117Z,13.30
2019-05-19T20:32:21.160Z,16.07
2019-05-19T20:34:50.712Z,11.93
2019-05-19T20:37:20.261Z,10.10
2019-05-19T20:39:49.104Z,11.03
2019-05-19T20:42:20.650Z,11.60
2019-05-19T20:44:50.232Z,8.77
2019-05-19T20:47:19.631Z,11.80
2019-05-19T20:49:48.532Z,8.83
2019-05-19T20:52:18.457Z,8.97
2019-05-19T20:54:48.618Z,8.50
2019-05-19T20:57:17.488Z,8.53
2019-05-19T20:59:46.460Z,9.03
2019-05-19T21:02:15.379Z,11.30
2019-05-19T21:04:45.056Z,9.63
2019-05-19T21:07:13.932Z,8.80
2019-05-19T21:09:44.255Z,10.63
2019-05-19T21:12:13.748Z,10.50
2019-05-19T21:14:43.236Z,8.30
2019-05-19T21:17:12.027Z,11.27
2019-05-19T21:19:41.463Z,11.13
2019-05-19T21:22:10.348Z,10.40
2019-05-19T21:24:39.207Z,13.57
2019-05-19T21:27:08.870Z,11.67
2019-05-19T21:29:37.943Z,9.87
2019-05-19T21:32:07.366Z,11.73
2019-05-19T21:34:37.063Z,13.67
2019-05-19T21:37:06.863Z,13.53
2019-05-19T21:39:36.282Z,16.43
2019-05-19T21:42:05.444Z,16.10
2019-05-19T21:44:34.469Z,24.73
2019-05-19T21:47:03.311Z,22.97
2019-05-19T21:49:32.698Z,29.27
2019-05-19T21:52:01.514Z,30.23
2019-05-19T21:54:30.319Z,28.40
2019-05-19T21:57:01.472Z,38.17
2019-05-19T21:59:30.604Z,34.77
2019-05-19T22:01:59.793Z,37.17
2019-05-19T22:04:29.343Z,36.07
2019-05-19T22:07:05.337Z,35.10
2019-05-19T22:09:35.455Z,40.77
2019-05-19T22:12:04.427Z,44.17
2019-05-19T22:14:33.806Z,43.33
2019-05-19T22:17:04.690Z,50.17
2019-05-19T22:19:33.554Z,54.90
2019-05-19T22:22:03.442Z,55.03
2019-05-19T22:24:32.263Z,52.47
2019-05-19T22:27:01.108Z,50.17
2019-05-19T22:29:29.935Z,49.83
2019-05-19T22:31:59.597Z,42.43
2019-05-19T22:34:28.455Z,46.17
2019-05-19T22:36:58.023Z,58.83
2019-05-19T22:39:26.891Z,42.80
2019-05-19T22:41:56.449Z,54.00
2019-05-19T22:44:25.380Z,51.77
2019-05-19T22:46:54.275Z,46.47
2019-05-19T22:49:23.101Z,48.17
2019-05-19T22:51:52.871Z,46.17
2019-05-19T22:54:21.681Z,53.23
2019-05-19T22:56:50.531Z,43.17
2019-05-19T22:59:20.400Z,49.07
2019-05-19T23:01:51.906Z,40.13
2019-05-19T23:04:17.016Z,39.00
2019-05-19T23:06:46.370Z,41.10
2019-05-19T23:09:15.795Z,46.33
2019-05-19T23:11:45.423Z,42.50
2019-05-19T23:14:14.309Z,37.20
2019-05-19T23:16:43.156Z,47.87
2019-05-19T23:19:15.673Z,45.47
2019-05-19T23:21:44.570Z,43.60
2019-05-19T23:24:13.368Z,49.30
2019-05-19T23:26:43.900Z,47.43
2019-05-19T23:29:13.625Z,44.00
2019-05-19T23:31:43.212Z,49.57
2019-05-19T23:34:14.807Z,47.43
2019-05-19T23:36:43.604Z,47.80
2019-05-19T23:39:12.419Z,47.27
2019-05-19T23:41:41.693Z,51.27
2019-05-19T23:44:10.554Z,48.60
2019-05-19T23:46:39.413Z,42.93
2019-05-19T23:49:08.276Z,47.27
2019-05-19T23:51:37.088Z,47.10
2019-05-19T23:54:05.963Z,42.37
2019-05-19T23:56:34.871Z,43.40
2019-05-19T23:59:03.759Z,45.00
